createdAt,value
2019-05-29T00:20:23.632Z,38.90
2019-05-29T00:33:30.995Z,38.90
2019-05-29T00:46:38.132Z,38.90
2019-05-29T00:59:45.261Z,38.90
2019-05-29T01:12:52.761Z,38.90
2019-05-29T01:39:19.337Z,38.80
2019-05-29T01:52:25.820Z,38.90
2019-05-29T02:05:33.059Z,39.00
2019-05-29T02:18:40.160Z,38.90
2019-05-29T02:31:47.300Z,38.80
2019-05-29T02:44:54.480Z,38.90
2019-05-29T02:58:18.460Z,38.80
2019-05-29T03:11:41.244Z,38.80
2019-05-29T03:25:04.075Z,38.60
2019-05-29T03:38:28.254Z,38.60
2019-05-29T03:51:49.805Z,38.60
2019-05-29T04:05:12.473Z,38.50
2019-05-29T04:31:38.075Z,38.50
2019-05-29T04:44:44.394Z,38.40
2019-05-29T04:57:51.634Z,38.40
2019-05-29T05:10:58.886Z,38.40
2019-05-29T05:24:06.045Z,38.90
2019-05-29T05:50:15.482Z,38.10
2019-05-29T06:03:22.847Z,38.50
2019-05-29T06:16:29.997Z,37.40
2019-05-29T06:29:37.154Z,37.00
2019-05-29T06:55:52.924Z,36.00
2019-05-29T07:08:55.188Z,36.30
2019-05-29T07:22:02.400Z,36.90
2019-05-29T07:35:09.496Z,35.80
2019-05-29T07:48:16.688Z,35.30
2019-05-29T08:01:23.815Z,35.30
2019-05-29T08:27:49.070Z,35.40
2019-05-29T08:40:56.221Z,35.00
2019-05-29T08:54:20.881Z,35.00
2019-05-29T09:07:10.895Z,35.50
2019-05-29T09:20:30.595Z,35.60
2019-05-29T09:33:25.470Z,35.60
2019-05-29T09:46:48.906Z,35.00
2019-05-29T10:13:13.804Z,35.20
2019-05-29T10:26:21.516Z,34.90
2019-05-29T10:39:28.839Z,34.40
2019-05-29T10:52:35.963Z,33.60
2019-05-29T11:06:00.273Z,33.50
2019-05-29T11:19:25.986Z,33.70
2019-05-29T11:32:47.545Z,34.20
2019-05-29T11:46:08.705Z,34.10
2019-05-29T11:59:31.546Z,33.40
2019-05-29T12:12:55.442Z,33.50
2019-05-29T12:26:21.496Z,33.50
2019-05-29T12:39:40.058Z,33.50
2019-05-29T12:53:03.968Z,33.50
2019-05-29T13:06:25.589Z,33.50
2019-05-29T13:19:48.426Z,33.40
2019-05-29T13:33:11.266Z,32.90
2019-05-29T13:46:34.110Z,33.00
2019-05-29T13:59:57.828Z,32.00
2019-05-29T14:13:19.862Z,32.40
2019-05-29T14:26:42.511Z,31.60
2019-05-29T14:40:05.641Z,31.10
2019-05-29T14:53:28.384Z,30.70
2019-05-29T15:19:52.595Z,30.80
2019-05-29T15:32:59.914Z,31.00
2019-05-29T15:46:08.322Z,31.80
2019-05-29T15:59:16.543Z,31.30
2019-05-29T16:25:39.723Z,30.90
2019-05-29T16:51:43.782Z,31.00
2019-05-29T17:05:05.214Z,30.50
2019-05-29T17:44:36.039Z,30.90
2019-05-29T17:57:43.191Z,30.50
2019-05-29T18:10:50.387Z,30.30
2019-05-29T18:23:57.902Z,30.00
2019-05-29T18:37:05.086Z,29.90
2019-05-29T18:50:12.196Z,30.00
2019-05-29T19:03:36.183Z,30.60
2019-05-29T19:16:58.689Z,30.90
2019-05-29T19:43:24.177Z,31.50
2019-05-29T19:56:31.728Z,31.70
2019-05-29T20:09:38.481Z,32.10
2019-05-29T20:35:48.931Z,32.40
2019-05-29T20:48:56.136Z,32.40
2019-05-29T21:02:03.267Z,32.60
2019-05-29T21:15:10.477Z,32.60
2019-05-29T21:28:17.596Z,32.90
2019-05-29T21:54:27.414Z,34.10
2019-05-29T22:07:34.567Z,33.60
2019-05-29T22:33:46.706Z,34.00
2019-05-29T23:00:00.083Z,34.30
2019-05-29T23:26:12.449Z,34.50
2019-05-29T23:39:19.579Z,34.70
